createdAt,value
2022-07-25T00:01:20.650Z,26.54
2022-07-25T00:03:45.374Z,26.62
2022-07-25T00:06:13.545Z,26.57
2022-07-25T00:08:38.170Z,26.55
2022-07-25T00:11:04.535Z,26.58
2022-07-25T00:13:30.961Z,26.65
2022-07-25T00:15:57.435Z,26.58
2022-07-25T00:18:23.792Z,26.61
2022-07-25T00:20:50.177Z,26.62
2022-07-25T00:23:16.601Z,26.62
2022-07-25T00:25:42.982Z,26.61
2022-07-25T00:28:09.366Z,26.58
2022-07-25T00:30:35.783Z,26.46
2022-07-25T00:33:02.226Z,26.40
2022-07-25T00:35:28.580Z,26.48
2022-07-25T00:37:54.994Z,26.43
2022-07-25T00:40:21.367Z,26.42
2022-07-25T00:42:47.861Z,26.37
2022-07-25T00:45:14.226Z,26.43
2022-07-25T00:47:40.622Z,26.48
2022-07-25T00:50:07.023Z,26.59
2022-07-25T00:52:33.480Z,26.56
2022-07-25T00:54:59.846Z,26.44
2022-07-25T00:57:26.265Z,26.46
2022-07-25T00:59:52.615Z,26.48
2022-07-25T01:02:19.022Z,26.35
2022-07-25T01:04:45.358Z,26.30
2022-07-25T01:07:11.722Z,26.32
2022-07-25T01:09:38.122Z,26.38
2022-07-25T01:12:04.492Z,26.42
2022-07-25T01:14:30.853Z,26.35
2022-07-25T01:16:57.254Z,26.34
2022-07-25T01:19:23.620Z,26.17
2022-07-25T01:21:50.070Z,26.11
2022-07-25T01:24:16.487Z,26.19
2022-07-25T01:26:42.849Z,26.19
2022-07-25T01:29:09.216Z,26.16
2022-07-25T01:31:35.653Z,26.06
2022-07-25T01:34:02.144Z,26.01
2022-07-25T01:36:28.424Z,26.04
2022-07-25T01:38:54.813Z,26.08
2022-07-25T01:41:22.295Z,26.12
2022-07-25T01:43:47.660Z,26.22
2022-07-25T01:46:14.071Z,26.25
2022-07-25T01:48:40.493Z,26.26
2022-07-25T01:51:06.825Z,26.26
2022-07-25T01:53:33.196Z,26.33
2022-07-25T01:55:59.566Z,26.31
2022-07-25T01:58:26.054Z,26.23
2022-07-25T02:00:52.483Z,26.16
2022-07-25T02:03:18.919Z,26.12
2022-07-25T02:05:45.354Z,26.10
2022-07-25T02:08:11.713Z,26.05
2022-07-25T02:10:38.098Z,26.03
2022-07-25T02:13:04.459Z,25.93
2022-07-25T02:15:30.844Z,25.89
2022-07-25T02:17:57.242Z,25.95
2022-07-25T02:20:23.598Z,26.00
2022-07-25T02:22:49.983Z,25.97
2022-07-25T02:25:16.349Z,25.99
2022-07-25T02:27:42.715Z,25.94
2022-07-25T02:30:09.167Z,25.95
2022-07-25T02:32:35.601Z,25.94
2022-07-25T02:35:02.036Z,25.91
2022-07-25T02:37:28.469Z,25.87
2022-07-25T02:39:54.852Z,25.80
2022-07-25T02:42:21.215Z,25.77
2022-07-25T02:44:47.677Z,25.75
2022-07-25T02:47:14.067Z,25.78
2022-07-25T02:49:40.456Z,25.84
2022-07-25T02:52:06.816Z,25.90
2022-07-25T02:54:33.295Z,25.90
2022-07-25T02:56:59.675Z,25.84
2022-07-25T02:59:26.063Z,25.68
2022-07-25T03:01:52.497Z,25.56
2022-07-25T03:04:18.836Z,25.53
2022-07-25T03:06:45.177Z,25.44
2022-07-25T03:09:11.547Z,25.47
2022-07-25T03:11:37.912Z,25.50
2022-07-25T03:14:04.736Z,25.53
2022-07-25T03:16:30.660Z,25.48
2022-07-25T03:18:57.018Z,25.49
2022-07-25T03:21:23.446Z,25.48
2022-07-25T03:24:03.958Z,25.43
2022-07-25T03:26:16.236Z,25.47
2022-07-25T03:28:42.625Z,25.45
2022-07-25T03:31:08.984Z,25.44
2022-07-25T03:33:35.402Z,25.42
2022-07-25T03:36:01.782Z,25.40
2022-07-25T03:38:28.166Z,25.41
2022-07-25T03:40:54.602Z,25.37
2022-07-25T03:43:21.034Z,25.33
2022-07-25T03:45:47.518Z,25.33
2022-07-25T03:48:13.830Z,25.27
2022-07-25T03:50:40.340Z,25.34
2022-07-25T03:53:06.770Z,25.27
2022-07-25T03:55:33.124Z,25.28
2022-07-25T03:57:59.520Z,25.28
2022-07-25T04:00:25.899Z,25.27
2022-07-25T04:02:52.304Z,25.23
2022-07-25T04:05:18.669Z,25.33
2022-07-25T04:07:45.031Z,25.35
2022-07-25T04:10:11.398Z,25.40
2022-07-25T04:12:37.823Z,25.38
2022-07-25T04:15:04.198Z,25.37
2022-07-25T04:17:30.563Z,25.34
2022-07-25T04:19:56.947Z,25.38
2022-07-25T04:22:23.346Z,25.48
2022-07-25T04:24:49.727Z,25.60
2022-07-25T04:27:16.213Z,25.63
2022-07-25T04:29:42.569Z,25.78
2022-07-25T04:32:08.987Z,25.86
2022-07-25T04:34:35.322Z,25.94
2022-07-25T04:37:01.745Z,25.97
2022-07-25T04:39:28.178Z,26.04
2022-07-25T04:41:54.611Z,26.08
2022-07-25T04:44:21.000Z,26.23
2022-07-25T04:46:47.347Z,26.31
2022-07-25T04:49:13.752Z,26.39
2022-07-25T04:51:40.135Z,26.49
2022-07-25T04:54:06.835Z,26.52
2022-07-25T04:56:33.005Z,26.52
2022-07-25T04:59:04.691Z,26.61
2022-07-25T05:01:25.798Z,26.74
2022-07-25T05:03:52.200Z,26.82
2022-07-25T05:06:18.559Z,27.14
2022-07-25T05:08:44.923Z,27.59
2022-07-25T05:11:11.400Z,27.75
2022-07-25T05:13:37.756Z,27.91
2022-07-25T05:16:04.299Z,28.28
2022-07-25T05:18:30.621Z,28.64
2022-07-25T05:20:56.986Z,28.68
2022-07-25T05:23:23.459Z,29.05
2022-07-25T05:25:49.855Z,29.21
2022-07-25T05:28:16.217Z,30.00
2022-07-25T05:30:42.603Z,31.31
2022-07-25T05:33:08.981Z,32.14
2022-07-25T05:35:35.418Z,31.78
2022-07-25T05:38:01.781Z,31.94
2022-07-25T05:40:28.156Z,31.46
2022-07-25T05:42:57.156Z,30.80
2022-07-25T05:45:20.916Z,31.05
2022-07-25T05:47:47.279Z,32.26
2022-07-25T05:50:13.708Z,32.34
2022-07-25T05:52:40.140Z,32.71
2022-07-25T05:55:06.508Z,32.89
2022-07-25T05:57:32.871Z,32.94
2022-07-25T05:59:59.243Z,33.04
2022-07-25T06:02:25.785Z,33.04
2022-07-25T06:04:52.102Z,32.81
2022-07-25T06:07:18.494Z,32.74
2022-07-25T06:09:44.871Z,32.69
2022-07-25T06:12:11.298Z,33.07
2022-07-25T06:14:37.660Z,32.80
2022-07-25T06:17:04.039Z,31.95
2022-07-25T06:19:30.514Z,32.22
2022-07-25T06:21:56.899Z,33.06
2022-07-25T06:24:23.359Z,33.15
2022-07-25T06:26:49.720Z,33.73
2022-07-25T06:29:16.250Z,33.89
2022-07-25T06:31:42.693Z,33.69
2022-07-25T06:34:09.392Z,33.31
2022-07-25T06:36:35.398Z,33.83
2022-07-25T06:39:01.772Z,33.96
2022-07-25T06:41:28.249Z,34.29
2022-07-25T06:43:54.620Z,33.92
2022-07-25T06:46:21.085Z,33.93
2022-07-25T06:48:47.452Z,33.64
2022-07-25T06:51:13.817Z,33.99
2022-07-25T06:53:40.240Z,34.05
2022-07-25T06:56:06.682Z,34.01
2022-07-25T06:58:33.060Z,33.89
2022-07-25T07:00:59.514Z,33.53
2022-07-25T07:03:26.055Z,33.71
2022-07-25T07:05:52.379Z,34.20
2022-07-25T07:08:18.769Z,34.18
2022-07-25T07:10:45.131Z,34.52
2022-07-25T07:13:11.525Z,35.36
2022-07-25T07:15:37.918Z,35.47
2022-07-25T07:18:04.253Z,35.57
2022-07-25T07:20:30.730Z,35.38
2022-07-25T07:22:57.145Z,35.19
2022-07-25T07:25:23.525Z,35.19
2022-07-25T07:27:49.933Z,35.61
2022-07-25T07:30:22.156Z,36.02
2022-07-25T07:32:42.719Z,35.82
2022-07-25T07:35:09.100Z,35.99
2022-07-25T07:37:40.009Z,36.17
2022-07-25T07:40:01.893Z,35.45
2022-07-25T07:42:28.382Z,35.09
2022-07-25T07:44:54.971Z,34.92
2022-07-25T07:47:21.366Z,34.80
2022-07-25T07:49:50.366Z,35.27
2022-07-25T07:52:14.234Z,35.51
2022-07-25T07:54:40.904Z,35.53
2022-07-25T07:57:07.285Z,35.80
2022-07-25T07:59:33.667Z,35.87
2022-07-25T08:02:00.168Z,36.15
2022-07-25T08:04:26.437Z,36.02
2022-07-25T08:06:52.826Z,36.40
2022-07-25T08:09:19.265Z,36.41
2022-07-25T08:11:45.699Z,36.39
2022-07-25T08:14:12.094Z,36.58
2022-07-25T08:16:38.551Z,36.90
2022-07-25T08:19:04.843Z,37.25
2022-07-25T08:21:31.330Z,37.09
2022-07-25T08:23:57.760Z,36.53
2022-07-25T08:26:24.195Z,35.93
2022-07-25T08:29:04.900Z,35.98
2022-07-25T08:31:16.966Z,36.92
2022-07-25T08:33:43.307Z,36.83
2022-07-25T08:36:09.677Z,36.69
2022-07-25T08:38:36.079Z,37.31
2022-07-25T08:41:02.442Z,37.26
2022-07-25T08:43:28.803Z,36.68
2022-07-25T08:45:55.288Z,36.72
2022-07-25T08:48:21.577Z,36.68
2022-07-25T08:50:47.964Z,36.81
2022-07-25T08:53:32.735Z,37.52
2022-07-25T08:55:40.698Z,37.37
2022-07-25T08:58:07.103Z,37.92
2022-07-25T09:00:33.561Z,37.97
2022-07-25T09:02:59.955Z,37.76
2022-07-25T09:05:26.290Z,37.11
2022-07-25T09:07:52.659Z,37.27
2022-07-25T09:10:19.171Z,37.72
2022-07-25T09:12:45.558Z,37.58
2022-07-25T09:15:12.004Z,37.46
2022-07-25T09:17:38.466Z,37.69
2022-07-25T09:20:04.897Z,38.11
2022-07-25T09:22:31.260Z,38.20
2022-07-25T09:24:57.666Z,38.46
2022-07-25T09:27:24.028Z,37.76
2022-07-25T09:29:50.435Z,36.11
2022-07-25T09:32:16.825Z,34.82
2022-07-25T09:34:43.287Z,34.11
2022-07-25T09:37:09.727Z,33.53
2022-07-25T09:39:36.085Z,33.43
2022-07-25T09:42:02.491Z,33.02
2022-07-25T09:44:28.925Z,32.86
2022-07-25T09:46:55.318Z,33.02
2022-07-25T09:49:21.689Z,33.45
2022-07-25T09:51:48.063Z,35.57
2022-07-25T09:54:14.431Z,36.71
2022-07-25T09:56:40.811Z,37.19
2022-07-25T09:59:07.227Z,37.50
2022-07-25T10:01:33.634Z,38.75
2022-07-25T10:03:59.980Z,39.09
2022-07-25T10:06:26.359Z,38.73
2022-07-25T10:08:52.717Z,38.78
2022-07-25T10:11:19.179Z,39.22
2022-07-25T10:13:45.563Z,38.60
2022-07-25T10:16:11.944Z,39.06
2022-07-25T10:18:38.314Z,37.60
2022-07-25T10:21:22.958Z,36.16
2022-07-25T10:23:31.036Z,37.22
2022-07-25T10:25:57.426Z,38.54
2022-07-25T10:28:23.783Z,39.17
2022-07-25T10:30:50.356Z,39.02
2022-07-25T10:33:16.691Z,39.00
2022-07-25T10:35:43.090Z,38.61
2022-07-25T10:38:09.488Z,38.63
2022-07-25T10:40:35.875Z,38.67
2022-07-25T10:43:02.254Z,37.62
2022-07-25T10:45:28.727Z,37.78
2022-07-25T10:47:55.107Z,38.70
2022-07-25T10:50:34.848Z,39.04
2022-07-25T10:52:47.985Z,37.31
2022-07-25T10:55:14.365Z,37.86
2022-07-25T10:57:54.949Z,39.04
2022-07-25T11:00:07.117Z,39.02
2022-07-25T11:02:33.562Z,38.74
2022-07-25T11:04:59.847Z,38.27
2022-07-25T11:07:26.309Z,38.41
2022-07-25T11:09:52.714Z,38.95
2022-07-25T11:12:19.181Z,39.33
2022-07-25T11:14:45.546Z,38.68
2022-07-25T11:17:11.983Z,37.09
2022-07-25T11:19:38.318Z,36.08
2022-07-25T11:22:04.702Z,35.92
2022-07-25T11:24:31.087Z,36.90
2022-07-25T11:26:57.466Z,37.72
2022-07-25T11:29:23.911Z,37.37
2022-07-25T11:31:50.327Z,37.24
2022-07-25T11:34:16.659Z,37.46
2022-07-25T11:36:43.058Z,37.65
2022-07-25T11:39:11.420Z,37.85
2022-07-25T11:41:35.971Z,38.09
2022-07-25T11:44:02.340Z,38.36
2022-07-25T11:46:28.783Z,38.10
2022-07-25T11:48:55.230Z,37.61
2022-07-25T11:51:21.523Z,37.52
2022-07-25T11:53:47.897Z,37.98
2022-07-25T11:56:39.614Z,38.33
2022-07-25T11:58:40.650Z,38.94
2022-07-25T12:01:07.017Z,38.91
2022-07-25T12:03:33.440Z,38.64
2022-07-25T12:05:59.891Z,37.96
2022-07-25T12:08:26.271Z,37.81
2022-07-25T12:10:52.636Z,38.04
2022-07-25T12:13:19.088Z,38.01
2022-07-25T12:15:45.463Z,37.90
2022-07-25T12:18:11.826Z,37.90
2022-07-25T12:20:38.251Z,37.62
2022-07-25T12:23:04.725Z,37.24
2022-07-25T12:25:31.316Z,37.38
2022-07-25T12:27:57.466Z,37.46
2022-07-25T12:30:23.870Z,36.94
2022-07-25T12:32:50.256Z,37.13
2022-07-25T12:35:16.638Z,37.05
2022-07-25T12:37:43.104Z,36.81
2022-07-25T12:40:09.504Z,36.28
2022-07-25T12:42:36.226Z,35.80
2022-07-25T12:45:02.584Z,35.40
2022-07-25T12:47:28.949Z,34.87
2022-07-25T12:49:55.376Z,35.32
2022-07-25T12:52:21.914Z,35.87
2022-07-25T12:54:48.346Z,36.25
2022-07-25T12:57:14.712Z,36.32
2022-07-25T12:59:41.100Z,36.20
2022-07-25T13:02:07.595Z,35.93
2022-07-25T13:04:33.905Z,35.91
2022-07-25T13:07:00.311Z,35.93
2022-07-25T13:09:26.731Z,35.76
2022-07-25T13:11:53.167Z,35.55
2022-07-25T13:14:19.604Z,35.37
2022-07-25T13:16:46.113Z,35.47
2022-07-25T13:19:12.410Z,35.59
2022-07-25T13:21:38.818Z,35.53
2022-07-25T13:24:05.238Z,35.36
2022-07-25T13:26:31.624Z,35.70
2022-07-25T13:28:59.927Z,35.48
2022-07-25T13:31:24.416Z,35.31
2022-07-25T13:33:50.787Z,35.23
2022-07-25T13:36:17.155Z,35.05
2022-07-25T13:38:43.627Z,35.02
2022-07-25T13:41:10.061Z,34.91
2022-07-25T13:43:36.446Z,34.85
2022-07-25T13:46:05.040Z,34.84
2022-07-25T13:48:31.588Z,34.96
2022-07-25T13:50:57.693Z,34.70
2022-07-25T13:53:29.498Z,34.87
2022-07-25T13:55:50.466Z,34.85
2022-07-25T13:58:16.939Z,34.58
2022-07-25T14:00:43.415Z,34.53
2022-07-25T14:03:09.672Z,34.58
2022-07-25T14:05:36.055Z,34.49
2022-07-25T14:08:02.464Z,34.20
2022-07-25T14:10:28.829Z,34.27
2022-07-25T14:12:55.201Z,34.42
2022-07-25T14:15:21.590Z,34.32
2022-07-25T14:17:47.995Z,34.10
2022-07-25T14:20:14.377Z,34.36
2022-07-25T14:22:40.850Z,34.24
2022-07-25T14:25:07.247Z,34.33
2022-07-25T14:27:33.626Z,34.33
2022-07-25T14:30:00.053Z,34.13
2022-07-25T14:32:26.492Z,34.00
2022-07-25T14:34:52.915Z,33.86
2022-07-25T14:37:19.283Z,33.72
2022-07-25T14:39:45.684Z,33.76
2022-07-25T14:42:12.117Z,33.54
2022-07-25T14:44:38.484Z,33.47
2022-07-25T14:47:08.964Z,33.40
2022-07-25T14:49:31.275Z,33.40
2022-07-25T14:51:57.753Z,33.49
2022-07-25T14:54:24.158Z,33.46
2022-07-25T14:56:50.519Z,33.48
2022-07-25T14:59:16.886Z,33.50
2022-07-25T15:01:43.265Z,33.35
2022-07-25T15:04:09.668Z,33.21
2022-07-25T15:06:36.033Z,33.13
2022-07-25T15:09:02.422Z,33.13
2022-07-25T15:11:28.792Z,33.07
2022-07-25T15:13:55.163Z,33.29
2022-07-25T15:16:21.587Z,33.30
2022-07-25T15:19:14.618Z,33.29
2022-07-25T15:21:14.299Z,33.30
2022-07-25T15:23:40.684Z,33.22
2022-07-25T15:26:07.047Z,33.16
2022-07-25T15:28:33.439Z,33.18
2022-07-25T15:30:59.913Z,33.07
2022-07-25T15:33:26.202Z,33.10
2022-07-25T15:35:52.567Z,32.96
2022-07-25T15:38:19.151Z,32.87
2022-07-25T15:40:45.488Z,32.96
2022-07-25T15:43:11.896Z,32.96
2022-07-25T15:45:38.388Z,32.97
2022-07-25T15:48:04.742Z,32.90
2022-07-25T15:50:31.151Z,32.74
2022-07-25T15:52:57.551Z,32.72
2022-07-25T15:55:23.922Z,32.91
2022-07-25T15:57:50.317Z,33.00
2022-07-25T16:00:16.746Z,32.90
2022-07-25T16:02:43.128Z,32.66
2022-07-25T16:05:09.535Z,32.59
2022-07-25T16:07:35.903Z,32.63
2022-07-25T16:10:02.300Z,32.56
2022-07-25T16:12:29.115Z,32.45
2022-07-25T16:14:55.498Z,32.41
2022-07-25T16:17:21.986Z,32.40
2022-07-25T16:19:48.420Z,32.34
2022-07-25T16:22:14.781Z,32.28
2022-07-25T16:24:41.176Z,32.26
2022-07-25T16:27:07.621Z,32.21
2022-07-25T16:29:33.993Z,32.21
2022-07-25T16:32:00.478Z,32.09
2022-07-25T16:34:29.210Z,32.02
2022-07-25T16:36:53.268Z,31.99
2022-07-25T16:39:19.625Z,32.02
2022-07-25T16:41:46.109Z,32.02
2022-07-25T16:44:12.541Z,31.92
2022-07-25T16:46:38.990Z,31.82
2022-07-25T16:49:05.616Z,31.81
2022-07-25T16:51:35.342Z,31.82
2022-07-25T16:53:58.119Z,31.88
2022-07-25T16:56:24.485Z,31.78
2022-07-25T16:58:50.870Z,31.65
2022-07-25T17:01:17.358Z,31.66
2022-07-25T17:03:43.755Z,31.61
2022-07-25T17:06:10.115Z,31.52
2022-07-25T17:08:36.518Z,31.50
2022-07-25T17:11:02.904Z,31.43
2022-07-25T17:13:29.269Z,31.31
2022-07-25T17:15:55.782Z,31.33
2022-07-25T17:18:22.138Z,31.33
2022-07-25T17:20:48.572Z,31.32
2022-07-25T17:23:14.922Z,31.24
2022-07-25T17:25:41.310Z,31.15
2022-07-25T17:28:07.745Z,31.04
2022-07-25T17:30:34.132Z,30.98
2022-07-25T17:33:00.496Z,30.93
2022-07-25T17:35:26.929Z,30.97
2022-07-25T17:37:53.276Z,30.94
2022-07-25T17:40:19.670Z,30.85
2022-07-25T17:42:46.121Z,30.78
2022-07-25T17:45:12.511Z,30.71
2022-07-25T17:47:38.897Z,30.66
2022-07-25T17:50:05.261Z,30.59
2022-07-25T17:52:31.681Z,30.49
2022-07-25T17:54:58.047Z,30.43
2022-07-25T17:57:24.431Z,30.32
2022-07-25T17:59:50.794Z,30.26
2022-07-25T18:02:17.158Z,30.30
2022-07-25T18:04:43.553Z,30.22
2022-07-25T18:07:09.931Z,30.22
2022-07-25T18:09:36.289Z,30.14
2022-07-25T18:12:02.690Z,30.09
2022-07-25T18:14:29.085Z,30.03
2022-07-25T18:16:55.444Z,29.97
2022-07-25T18:19:21.831Z,29.93
2022-07-25T18:21:48.211Z,29.91
2022-07-25T18:24:14.659Z,29.81
2022-07-25T18:26:41.052Z,29.79
2022-07-25T18:29:07.517Z,29.74
2022-07-25T18:31:33.983Z,29.68
2022-07-25T18:34:00.285Z,29.63
2022-07-25T18:36:26.664Z,29.59
2022-07-25T18:38:53.073Z,29.53
2022-07-25T18:41:29.363Z,29.51
2022-07-25T18:43:45.822Z,29.48
2022-07-25T18:46:12.242Z,29.43
2022-07-25T18:48:38.669Z,29.38
2022-07-25T18:51:05.124Z,29.32
2022-07-25T18:53:31.549Z,29.28
2022-07-25T18:55:57.917Z,29.26
2022-07-25T18:58:24.320Z,29.23
2022-07-25T19:00:50.684Z,29.23
2022-07-25T19:03:17.094Z,29.20
2022-07-25T19:05:43.619Z,29.19
2022-07-25T19:08:09.873Z,29.13
2022-07-25T19:10:36.236Z,29.07
2022-07-25T19:13:02.604Z,29.02
2022-07-25T19:15:29.020Z,28.99
2022-07-25T19:17:55.378Z,28.95
2022-07-25T19:20:21.761Z,28.93
2022-07-25T19:22:48.122Z,28.90
2022-07-25T19:25:14.510Z,28.89
2022-07-25T19:27:40.896Z,28.86
2022-07-25T19:30:07.257Z,28.87
2022-07-25T19:32:33.657Z,28.90
2022-07-25T19:35:00.052Z,28.81
2022-07-25T19:37:26.523Z,28.74
2022-07-25T19:39:52.899Z,28.74
2022-07-25T19:42:19.294Z,28.64
2022-07-25T19:44:45.724Z,28.60
2022-07-25T19:47:12.182Z,28.60
2022-07-25T19:49:38.479Z,28.62
2022-07-25T19:52:04.908Z,28.65
2022-07-25T19:54:31.267Z,28.66
2022-07-25T19:56:57.703Z,28.60
2022-07-25T19:59:24.206Z,28.35
2022-07-25T20:01:50.697Z,28.26
2022-07-25T20:04:17.012Z,28.29
2022-07-25T20:06:43.406Z,28.35
2022-07-25T20:09:10.200Z,28.29
2022-07-25T20:11:36.206Z,28.11
2022-07-25T20:14:02.553Z,28.03
2022-07-25T20:16:28.966Z,27.96
2022-07-25T20:18:55.294Z,27.80
2022-07-25T20:21:21.703Z,27.62
2022-07-25T20:23:48.082Z,27.46
2022-07-25T20:26:14.446Z,27.39
2022-07-25T20:28:40.866Z,27.34
2022-07-25T20:31:07.400Z,27.34
2022-07-25T20:33:33.716Z,27.22
2022-07-25T20:36:00.086Z,27.17
2022-07-25T20:38:26.446Z,27.14
2022-07-25T20:40:52.810Z,27.11
2022-07-25T20:43:19.197Z,27.01
2022-07-25T20:45:45.599Z,26.97
2022-07-25T20:48:12.120Z,26.96
2022-07-25T20:50:38.488Z,26.92
2022-07-25T20:53:04.859Z,26.85
2022-07-25T20:55:31.367Z,26.90
2022-07-25T20:57:57.761Z,26.89
2022-07-25T21:00:24.124Z,26.83
2022-07-25T21:02:50.634Z,26.79
2022-07-25T21:05:16.995Z,26.75
2022-07-25T21:07:43.354Z,26.80
2022-07-25T21:10:09.751Z,26.81
2022-07-25T21:12:36.180Z,26.82
2022-07-25T21:15:02.610Z,26.80
2022-07-25T21:17:28.973Z,26.75
2022-07-25T21:19:55.341Z,26.68
2022-07-25T21:22:21.731Z,26.59
2022-07-25T21:24:48.143Z,26.52
2022-07-25T21:27:14.495Z,26.54
2022-07-25T21:29:40.921Z,26.53
2022-07-25T21:32:07.326Z,26.48
2022-07-25T21:34:33.640Z,26.40
2022-07-25T21:37:00.033Z,26.28
2022-07-25T21:39:26.380Z,26.14
2022-07-25T21:41:55.403Z,26.02
2022-07-25T21:44:19.204Z,25.92
2022-07-25T21:46:45.623Z,25.80
2022-07-25T21:49:12.809Z,25.71
2022-07-25T21:51:40.228Z,25.59
2022-07-25T21:54:04.734Z,25.52
2022-07-25T21:56:31.162Z,25.42
2022-07-25T21:58:57.536Z,25.31
2022-07-25T22:01:23.971Z,25.20
2022-07-25T22:03:50.396Z,25.18
2022-07-25T22:06:16.789Z,25.15
2022-07-25T22:08:43.140Z,25.11
2022-07-25T22:11:20.678Z,25.02
2022-07-25T22:13:38.019Z,24.93
2022-07-25T22:16:02.455Z,24.90
2022-07-25T22:18:28.754Z,24.83
2022-07-25T22:20:55.132Z,24.80
2022-07-25T22:23:21.514Z,24.72
2022-07-25T22:25:47.897Z,24.51
2022-07-25T22:28:14.523Z,24.42
2022-07-25T22:30:40.640Z,24.33
2022-07-25T22:33:07.011Z,24.27
2022-07-25T22:35:33.380Z,24.09
2022-07-25T22:37:59.803Z,23.95
2022-07-25T22:40:26.232Z,24.04
2022-07-25T22:42:52.598Z,24.00
2022-07-25T22:45:18.982Z,24.10
2022-07-25T22:47:45.357Z,24.20
2022-07-25T22:50:11.718Z,24.23
2022-07-25T22:52:38.129Z,24.24
2022-07-25T22:55:04.489Z,24.23
2022-07-25T22:57:37.568Z,24.20
2022-07-25T22:59:57.394Z,24.24
2022-07-25T23:02:23.831Z,24.28
2022-07-25T23:04:50.202Z,24.28
2022-07-25T23:07:16.613Z,24.17
2022-07-25T23:09:42.996Z,24.04
2022-07-25T23:12:09.363Z,23.85
2022-07-25T23:14:35.791Z,23.83
2022-07-25T23:17:02.281Z,23.94
2022-07-25T23:19:28.657Z,24.03
2022-07-25T23:21:55.015Z,24.10
2022-07-25T23:24:21.424Z,24.07
2022-07-25T23:26:47.794Z,24.07
2022-07-25T23:29:14.168Z,23.86
2022-07-25T23:31:40.680Z,23.72
2022-07-25T23:34:07.047Z,23.64
2022-07-25T23:36:33.392Z,23.62
2022-07-25T23:38:59.912Z,23.57
2022-07-25T23:41:26.291Z,23.47
2022-07-25T23:43:59.602Z,23.35
2022-07-25T23:46:22.468Z,23.33
2022-07-25T23:48:45.556Z,23.28
2022-07-25T23:51:11.885Z,23.27
2022-07-25T23:53:38.271Z,23.27
2022-07-25T23:56:04.634Z,23.24
2022-07-25T23:58:30.985Z,23.28
